Time;durP1;ratioP1;P1;durP2;ratioP2;P2;SDS_P1;SDS_P2;PMS_P1;PMS_P2;Temp;Humidity;BMP_temperature;BMP_pressure;BME280_temperature;BME280_humidity;BME280_pressure;Samples;Min_cycle;Max_cycle;Signal;HPM_P1;HPM_P2
2023/02/25 00:01:05;;;;;;;16.17;6.37;;;6.60;99.90;;;;;;5093244;28;20806;-51
2023/02/25 00:03:31;;;;;;;15.47;6.07;;;6.50;99.90;;;;;;5095214;28;20462;-51
2023/02/25 00:06:01;;;;;;;12.27;5.30;;;6.70;99.90;;;;;;5094510;28;20440;-51
2023/02/25 00:08:27;;;;;;;14.30;3.70;;;6.60;99.90;;;;;;5094237;28;20451;-50
2023/02/25 00:10:58;;;;;;;12.60;4.30;;;6.90;99.90;;;;;;5093448;28;20952;-52
2023/02/25 00:13:25;;;;;;;13.27;4.70;;;6.80;99.90;;;;;;5094749;28;20401;-52
2023/02/25 00:15:52;;;;;;;16.53;3.97;;;6.90;99.90;;;;;;5094843;28;20413;-51
2023/02/25 00:18:18;;;;;;;17.33;4.77;;;6.80;99.90;;;;;;5094186;28;20455;-50
2023/02/25 00:20:45;;;;;;;12.40;4.77;;;6.60;99.90;;;;;;5094796;28;20442;-51
2023/02/25 00:23:13;;;;;;;8.73;4.60;;;6.60;99.90;;;;;;5094694;28;20766;-51
2023/02/25 00:25:40;;;;;;;5.57;2.90;;;6.00;99.90;;;;;;5094543;28;20435;-52
2023/02/25 00:28:06;;;;;;;7.67;3.57;;;6.40;99.90;;;;;;5094034;28;20462;-51
2023/02/25 00:30:34;;;;;;;4.10;2.53;;;6.00;99.90;;;;;;5094148;28;20423;-50
2023/02/25 00:33:00;;;;;;;9.03;2.27;;;6.00;99.90;;;;;;5094037;28;20406;-49
2023/02/25 00:35:27;;;;;;;6.73;3.13;;;5.70;99.90;;;;;;5094407;28;20434;-51
2023/02/25 00:37:54;;;;;;;5.33;1.57;;;5.80;99.90;;;;;;5092794;28;20413;-51
2023/02/25 00:40:22;;;;;;;3.10;1.50;;;5.60;99.90;;;;;;5093772;28;20428;-51
2023/02/25 00:42:49;;;;;;;3.77;1.37;;;5.90;99.90;;;;;;5092668;28;20442;-49
2023/02/25 00:45:16;;;;;;;3.40;1.40;;;5.60;99.90;;;;;;5094026;28;20430;-52
2023/02/25 00:47:43;;;;;;;3.67;1.67;;;5.50;99.90;;;;;;5092576;28;20495;-51
2023/02/25 00:50:11;;;;;;;3.20;1.20;;;5.60;99.90;;;;;;5092295;28;20439;-52
2023/02/25 00:52:38;;;;;;;3.90;1.40;;;5.80;99.90;;;;;;5092528;28;20450;-51
2023/02/25 00:55:05;;;;;;;3.90;1.90;;;5.50;99.90;;;;;;5093855;28;20412;-52
2023/02/25 00:57:33;;;;;;;2.80;1.40;;;5.30;99.90;;;;;;5093814;28;20398;-51
2023/02/25 01:00:00;;;;;;;4.37;1.53;;;5.70;99.90;;;;;;5091879;28;20436;-51
2023/02/25 01:02:26;;;;;;;10.00;2.17;;;4.90;99.90;;;;;;5092328;28;20980;-51
2023/02/25 01:04:53;;;;;;;2.60;1.80;;;4.90;99.90;;;;;;5092050;28;20446;-51
2023/02/25 01:07:20;;;;;;;2.77;1.50;;;5.50;99.90;;;;;;5093709;28;21015;-52
2023/02/25 01:09:47;;;;;;;2.37;1.60;;;5.70;99.90;;;;;;5092119;28;20471;-50
2023/02/25 01:12:14;;;;;;;5.17;2.20;;;5.60;99.90;;;;;;5093672;28;20432;-50
2023/02/25 01:14:43;;;;;;;3.90;2.27;;;5.40;99.90;;;;;;5092185;28;20441;-51
2023/02/25 01:17:10;;;;;;;7.40;2.20;;;5.50;99.90;;;;;;5093367;28;20400;-50
2023/02/25 01:19:36;;;;;;;3.80;2.50;;;5.40;99.90;;;;;;5093104;28;20458;-52
2023/02/25 01:22:03;;;;;;;5.07;1.90;;;5.40;99.90;;;;;;5092254;28;20992;-51
2023/02/25 01:24:33;;;;;;;3.70;1.60;;;5.40;99.90;;;;;;5092129;28;20506;-52
2023/02/25 01:27:01;;;;;;;5.13;2.20;;;5.60;99.90;;;;;;5093204;28;21011;-52
2023/02/25 01:29:30;;;;;;;6.83;2.27;;;5.00;99.90;;;;;;5092732;28;20429;-51
2023/02/25 01:32:00;;;;;;;6.20;1.93;;;5.50;99.90;;;;;;5091616;28;20789;-52
2023/02/25 01:34:28;;;;;;;7.10;2.53;;;5.10;99.90;;;;;;5093169;28;20438;-51
2023/02/25 01:36:55;;;;;;;6.33;2.00;;;5.80;99.90;;;;;;5091753;28;20965;-51
2023/02/25 01:39:23;;;;;;;6.17;2.87;;;5.60;99.90;;;;;;5092562;28;20451;-52
2023/02/25 01:41:53;;;;;;;4.27;2.10;;;5.70;99.90;;;;;;5092959;28;20428;-51
2023/02/25 01:44:22;;;;;;;5.47;2.23;;;5.00;99.90;;;;;;5091760;28;20799;-51
2023/02/25 01:46:50;;;;;;;8.03;2.97;;;5.90;99.90;;;;;;5091414;28;20456;-52
2023/02/25 01:49:21;;;;;;;4.33;2.30;;;5.60;99.90;;;;;;5091382;28;20458;-52
2023/02/25 01:51:50;;;;;;;5.67;2.50;;;5.80;99.90;;;;;;5092830;28;20441;-52
2023/02/25 01:54:19;;;;;;;5.60;3.10;;;5.80;99.90;;;;;;5092614;28;20933;-51
2023/02/25 01:56:53;;;;;;;4.90;2.73;;;5.60;99.90;;;;;;5091018;28;20420;-51
2023/02/25 01:59:22;;;;;;;8.03;3.90;;;5.70;99.90;;;;;;5090932;28;20464;-52
2023/02/25 02:01:49;;;;;;;6.70;3.15;;;5.70;99.90;;;;;;5091450;28;20460;-52
2023/02/25 02:04:19;;;;;;;4.50;2.70;;;5.70;99.90;;;;;;5092635;28;20199;-51
2023/02/25 02:06:48;;;;;;;6.07;3.00;;;5.60;99.90;;;;;;5091068;28;20459;-50
2023/02/25 02:09:18;;;;;;;8.17;3.90;;;5.50;99.90;;;;;;5091908;28;20444;-51
2023/02/25 02:11:45;;;;;;;9.63;2.83;;;5.60;99.90;;;;;;5091346;28;20962;-50
2023/02/25 02:14:17;;;;;;;8.43;2.93;;;5.90;99.90;;;;;;5091124;28;20416;-51
2023/02/25 02:16:58;;;;;;;7.70;3.00;;;5.70;99.90;;;;;;5090938;28;20897;-51
2023/02/25 02:19:41;;;;;;;12.97;4.03;;;5.50;99.90;;;;;;5091830;28;20449;-51
2023/02/25 02:22:13;;;;;;;6.00;2.60;;;5.30;99.90;;;;;;5092366;28;20431;-51
2023/02/25 02:25:12;;;;;;;7.97;3.23;;;5.90;99.90;;;;;;5091012;28;20941;-52
2023/02/25 02:28:00;;;;;;;9.07;5.83;;;5.70;99.90;;;;;;5092106;28;20977;-52
2023/02/25 02:30:38;;;;;;;20.10;10.87;;;5.90;99.90;;;;;;5090339;28;20450;-51
2023/02/25 02:33:12;;;;;;;31.80;19.73;;;5.90;99.90;;;;;;5092160;28;20434;-51
2023/02/25 02:35:49;;;;;;;34.30;23.10;;;5.60;99.90;;;;;;5090689;28;20932;-50
2023/02/25 02:38:23;;;;;;;46.97;30.03;;;5.70;99.90;;;;;;5091766;28;20914;-51
2023/02/25 02:40:58;;;;;;;56.50;34.17;;;5.90;99.90;;;;;;5090782;28;20488;-52
2023/02/25 02:43:37;;;;;;;45.73;30.17;;;5.90;99.90;;;;;;5092102;28;20441;-51
2023/02/25 02:46:09;;;;;;;44.20;25.47;;;5.90;99.90;;;;;;5090563;28;20448;-51
2023/02/25 02:48:42;;;;;;;35.80;20.70;;;5.80;99.90;;;;;;5090188;28;20456;-50
2023/02/25 02:51:15;;;;;;;27.13;14.93;;;5.90;99.90;;;;;;5092035;28;20436;-51
2023/02/25 02:53:46;;;;;;;20.97;12.17;;;5.80;99.90;;;;;;5092148;28;20433;-50
2023/02/25 02:56:16;;;;;;;16.00;10.73;;;5.80;99.90;;;;;;5090784;28;20804;-51
2023/02/25 02:58:47;;;;;;;22.37;13.57;;;5.80;99.90;;;;;;5090294;28;20472;-51
2023/02/25 03:01:17;;;;;;;26.77;15.47;;;5.80;99.90;;;;;;5092047;28;20723;-51
2023/02/25 03:03:50;;;;;;;23.10;13.17;;;5.70;99.90;;;;;;5092307;28;20476;-51
2023/02/25 03:06:24;;;;;;;20.33;9.90;;;5.20;99.90;;;;;;5090878;28;20427;-51
2023/02/25 03:08:58;;;;;;;23.43;14.00;;;5.60;99.90;;;;;;5096277;28;20488;-51
2023/02/25 03:11:25;;;;;;;41.83;28.30;;;6.10;99.90;;;;;;5097510;28;20472;-50
2023/02/25 03:13:52;;;;;;;58.13;39.33;;;5.60;99.90;;;;;;5098124;28;20460;-51
2023/02/25 03:16:24;;;;;;;38.70;27.77;;;6.20;99.90;;;;;;5097537;28;20958;-51
2023/02/25 03:18:58;;;;;;;17.17;13.37;;;5.50;99.90;;;;;;5096825;28;20533;-52
2023/02/25 03:21:32;;;;;;;6.20;4.80;;;5.50;99.90;;;;;;5095277;28;20445;-52
2023/02/25 03:24:00;;;;;;;5.00;3.70;;;5.40;99.90;;;;;;5094628;28;20204;-52
2023/02/25 03:26:29;;;;;;;3.70;3.03;;;5.50;99.90;;;;;;5094616;28;20453;-51
2023/02/25 03:29:00;;;;;;;2.93;1.97;;;5.50;99.90;;;;;;5094118;28;20476;-50
2023/02/25 03:31:32;;;;;;;3.08;2.60;;;4.90;99.90;;;;;;5094258;28;20796;-51
2023/02/25 03:34:04;;;;;;;4.80;2.90;;;6.00;99.90;;;;;;5094220;28;20199;-50
2023/02/25 03:36:34;;;;;;;6.87;3.03;;;5.60;99.90;;;;;;5094073;28;20421;-54
2023/02/25 03:39:07;;;;;;;3.90;2.23;;;5.50;99.90;;;;;;5094950;28;20431;-50
2023/02/25 03:41:38;;;;;;;2.47;1.90;;;5.50;99.90;;;;;;5095539;28;20410;-51
2023/02/25 03:44:09;;;;;;;2.53;2.03;;;5.40;99.90;;;;;;5095319;28;20432;-51
2023/02/25 03:46:37;;;;;;;2.13;1.93;;;5.50;99.90;;;;;;5094161;28;20446;-52
2023/02/25 03:49:07;;;;;;;2.88;2.10;;;5.40;99.90;;;;;;5093277;28;20534;-52
2023/02/25 03:51:38;;;;;;;2.13;1.60;;;5.30;99.90;;;;;;5094083;28;20293;-51
2023/02/25 03:54:06;;;;;;;3.27;1.80;;;5.40;99.90;;;;;;5093900;28;20200;-50
2023/02/25 03:56:42;;;;;;;5.53;2.37;;;5.40;99.90;;;;;;5094112;28;20510;-51
2023/02/25 03:59:09;;;;;;;2.47;1.70;;;5.10;99.90;;;;;;5094861;28;20467;-50
2023/02/25 04:01:37;;;;;;;2.95;2.13;;;5.40;99.90;;;;;;5094805;28;20404;-51
2023/02/25 04:04:05;;;;;;;3.03;1.85;;;5.20;99.90;;;;;;5093460;28;20202;-51
2023/02/25 04:06:32;;;;;;;5.63;3.30;;;5.20;99.90;;;;;;5093590;28;20670;-51
2023/02/25 04:08:59;;;;;;;6.03;3.25;;;5.30;99.90;;;;;;5092866;28;20491;-52
2023/02/25 04:11:26;;;;;;;6.10;3.17;;;5.40;99.90;;;;;;5093437;28;20206;-51
2023/02/25 04:13:53;;;;;;;7.72;5.38;;;5.20;99.90;;;;;;5093508;28;20454;-51
2023/02/25 04:16:20;;;;;;;11.93;6.30;;;5.40;99.90;;;;;;5093289;28;20199;-51
2023/02/25 04:18:47;;;;;;;10.60;6.07;;;4.40;99.90;;;;;;5092424;28;20225;-51
2023/02/25 04:21:26;;;;;;;9.80;4.20;;;5.20;99.90;;;;;;5093108;28;20226;-51
2023/02/25 04:23:53;;;;;;;8.13;3.35;;;5.00;99.90;;;;;;5094541;28;20503;-51
2023/02/25 04:26:20;;;;;;;4.57;2.30;;;4.70;99.90;;;;;;5094388;28;20190;-52
2023/02/25 04:28:46;;;;;;;4.43;2.90;;;5.30;99.90;;;;;;5093924;28;20230;-52
2023/02/25 04:31:13;;;;;;;6.18;1.55;;;5.30;99.90;;;;;;5093998;28;20269;-53
2023/02/25 04:33:39;;;;;;;1.70;1.38;;;4.50;99.90;;;;;;5094304;28;20201;-52
2023/02/25 04:36:23;;;;;;;2.22;1.50;;;5.20;99.90;;;;;;5093057;28;20202;-51
2023/02/25 04:38:50;;;;;;;1.77;1.50;;;5.00;99.90;;;;;;5093800;28;20218;-52
2023/02/25 04:41:16;;;;;;;2.00;1.17;;;5.10;99.90;;;;;;5094143;28;20205;-51
2023/02/25 04:43:44;;;;;;;1.83;1.20;;;4.70;99.90;;;;;;5094154;28;20406;-51
2023/02/25 04:46:11;;;;;;;1.67;1.17;;;5.10;99.90;;;;;;5093983;28;20403;-51
2023/02/25 04:48:38;;;;;;;2.75;1.40;;;5.20;99.90;;;;;;5093661;28;20321;-51
2023/02/25 04:51:05;;;;;;;1.73;1.13;;;4.90;99.90;;;;;;5093013;28;20655;-52
2023/02/25 04:53:34;;;;;;;2.00;1.20;;;5.00;99.90;;;;;;5093964;28;20198;-52
2023/02/25 04:56:02;;;;;;;1.60;1.00;;;4.90;99.90;;;;;;5093851;28;20199;-51
2023/02/25 04:58:30;;;;;;;3.28;1.13;;;5.00;99.90;;;;;;5093588;28;20234;-51
2023/02/25 05:00:58;;;;;;;3.30;0.80;;;4.90;99.90;;;;;;5094069;28;20199;-52
2023/02/25 05:03:25;;;;;;;1.27;1.00;;;4.90;99.90;;;;;;5093824;28;20245;-52
2023/02/25 05:05:52;;;;;;;2.47;1.20;;;4.70;99.90;;;;;;5093588;28;20277;-51
2023/02/25 05:10:53;;;;;;;1.77;1.20;;;4.90;99.90;;;;;;5051555;28;20215;-49
2023/02/25 05:13:21;;;;;;;2.47;1.17;;;5.00;99.90;;;;;;5053029;28;20706;-48
2023/02/25 05:15:48;;;;;;;1.30;1.00;;;4.70;99.90;;;;;;5052782;28;20203;-49
2023/02/25 05:18:15;;;;;;;1.33;1.00;;;5.00;99.90;;;;;;5052237;28;20196;-49
2023/02/25 05:20:42;;;;;;;1.60;1.20;;;5.20;99.90;;;;;;5052599;28;20220;-49
2023/02/25 05:23:09;;;;;;;1.85;1.05;;;4.90;99.90;;;;;;5052569;28;20206;-50
2023/02/25 05:25:40;;;;;;;1.88;1.30;;;4.70;99.90;;;;;;5052663;28;20200;-48
2023/02/25 05:28:08;;;;;;;1.65;1.25;;;4.80;99.90;;;;;;5052440;28;20232;-49
2023/02/25 05:30:36;;;;;;;2.72;1.30;;;4.60;99.90;;;;;;5033483;28;20239;-48
2023/02/25 05:33:04;;;;;;;1.85;1.10;;;4.80;99.90;;;;;;5052418;28;20207;-48
2023/02/25 05:35:31;;;;;;;1.27;1.10;;;4.60;99.90;;;;;;5052175;28;20657;-48
2023/02/25 05:37:58;;;;;;;1.50;1.27;;;4.20;99.90;;;;;;5052246;28;20275;-49
2023/02/25 05:40:25;;;;;;;1.63;1.20;;;4.50;99.90;;;;;;5051976;28;20692;-48
2023/02/25 05:42:52;;;;;;;2.00;1.33;;;4.10;99.90;;;;;;5052013;28;20291;-49
2023/02/25 05:45:20;;;;;;;2.35;1.25;;;4.50;99.90;;;;;;5051977;28;20196;-48
2023/02/25 05:47:46;;;;;;;4.70;1.30;;;4.60;99.90;;;;;;5052299;28;20196;-49
2023/02/25 05:50:13;;;;;;;2.80;1.35;;;4.80;99.90;;;;;;5051808;28;20310;-49
2023/02/25 05:52:41;;;;;;;2.15;1.40;;;4.70;99.90;;;;;;5052135;28;20184;-49
2023/02/25 05:55:09;;;;;;;2.63;1.67;;;4.50;99.90;;;;;;5052107;28;20200;-47
2023/02/25 05:57:35;;;;;;;1.63;1.23;;;4.60;99.90;;;;;;5052136;28;20596;-49
2023/02/25 06:00:04;;;;;;;1.77;1.10;;;4.80;99.90;;;;;;5051734;28;20215;-49
2023/02/25 06:02:40;;;;;;;1.50;1.10;;;4.30;99.90;;;;;;5052019;28;20204;-49
2023/02/25 06:05:07;;;;;;;2.33;1.30;;;4.70;99.90;;;;;;5051824;28;20588;-48
2023/02/25 06:07:34;;;;;;;1.98;1.50;;;4.60;99.90;;;;;;5033854;28;20199;-49
2023/02/25 06:10:01;;;;;;;1.70;1.40;;;4.30;99.90;;;;;;5051172;28;20641;-49
2023/02/25 06:12:29;;;;;;;2.10;1.35;;;4.60;99.90;;;;;;5051557;28;20200;-49
2023/02/25 06:14:56;;;;;;;2.60;1.42;;;4.50;99.90;;;;;;5051499;28;20669;-50
2023/02/25 06:17:23;;;;;;;2.00;1.42;;;4.20;99.90;;;;;;5051542;28;20192;-50
2023/02/25 06:19:52;;;;;;;3.03;2.35;;;3.80;99.90;;;;;;5051574;28;20212;-50
2023/02/25 06:22:18;;;;;;;2.88;2.38;;;4.30;99.90;;;;;;5051408;28;20211;-49
2023/02/25 06:24:46;;;;;;;1.83;1.10;;;4.70;99.90;;;;;;5051950;28;20191;-48
2023/02/25 06:27:13;;;;;;;2.05;1.45;;;4.40;99.90;;;;;;5051466;28;20203;-50
2023/02/25 06:29:40;;;;;;;1.95;1.35;;;4.60;99.90;;;;;;5051094;28;20289;-50
2023/02/25 06:32:07;;;;;;;2.67;1.67;;;4.50;99.90;;;;;;5051635;28;20196;-48
2023/02/25 06:34:34;;;;;;;1.67;1.38;;;4.40;99.90;;;;;;5051304;28;20203;-48
2023/02/25 06:37:02;;;;;;;2.50;1.35;;;3.80;99.90;;;;;;5051682;28;20208;-50
2023/02/25 06:39:29;;;;;;;2.08;1.33;;;4.40;99.90;;;;;;5050853;28;20216;-49
2023/02/25 06:41:55;;;;;;;2.10;1.80;;;3.90;99.90;;;;;;5051079;28;20200;-49
2023/02/25 06:44:22;;;;;;;1.65;1.30;;;4.20;99.90;;;;;;5051358;28;20203;-49
2023/02/25 06:46:50;;;;;;;1.92;1.50;;;4.30;99.90;;;;;;5051293;28;20196;-49
2023/02/25 06:49:17;;;;;;;2.95;1.65;;;4.60;99.90;;;;;;5050782;28;20273;-49
2023/02/25 06:51:44;;;;;;;2.22;1.40;;;4.20;99.90;;;;;;5051303;28;20200;-48
2023/02/25 06:54:12;;;;;;;2.00;1.38;;;4.60;99.90;;;;;;5051164;28;20200;-50
2023/02/25 06:56:38;;;;;;;1.55;1.35;;;4.20;99.90;;;;;;5051136;28;20206;-47
2023/02/25 06:59:05;;;;;;;2.58;1.27;;;4.40;99.90;;;;;;5050774;28;20579;-49
2023/02/25 07:01:31;;;;;;;2.45;1.48;;;3.90;99.90;;;;;;5051214;28;20196;-50
2023/02/25 07:03:58;;;;;;;1.60;1.20;;;4.20;99.90;;;;;;5051247;28;20221;-49
2023/02/25 07:06:25;;;;;;;1.98;1.45;;;4.10;99.90;;;;;;5051224;28;20195;-48
2023/02/25 07:08:51;;;;;;;1.80;1.45;;;4.10;99.90;;;;;;5050398;28;20695;-48
2023/02/25 07:11:29;;;;;;;2.20;1.50;;;4.00;99.90;;;;;;5051223;28;20202;-50
2023/02/25 07:13:56;;;;;;;1.98;1.55;;;3.70;99.90;;;;;;5050963;28;20668;-49
2023/02/25 07:16:23;;;;;;;1.92;1.65;;;3.90;99.90;;;;;;5050998;28;20207;-49
2023/02/25 07:18:50;;;;;;;2.10;1.55;;;4.20;99.90;;;;;;5050849;28;20223;-50
2023/02/25 07:21:17;;;;;;;2.47;1.77;;;4.10;99.90;;;;;;5050941;28;20231;-48
2023/02/25 07:23:45;;;;;;;2.13;1.52;;;4.30;99.90;;;;;;5051117;28;20193;-50
2023/02/25 07:26:13;;;;;;;2.72;1.60;;;3.80;99.90;;;;;;5051068;28;20528;-49
2023/02/25 07:28:42;;;;;;;3.22;2.47;;;4.10;99.90;;;;;;5050343;28;20232;-50
2023/02/25 07:31:11;;;;;;;2.50;1.60;;;4.50;99.90;;;;;;5050986;28;20207;-49
2023/02/25 07:33:37;;;;;;;1.50;1.00;;;4.30;99.90;;;;;;5050819;28;20197;-49
2023/02/25 07:36:05;;;;;;;1.80;1.45;;;4.00;99.90;;;;;;5050671;28;20568;-50
2023/02/25 07:38:31;;;;;;;2.10;1.40;;;4.30;99.90;;;;;;5050445;28;20203;-49
2023/02/25 07:41:04;;;;;;;1.50;1.20;;;4.40;99.90;;;;;;5050563;28;20215;-49
2023/02/25 07:43:30;;;;;;;2.38;1.23;;;4.10;99.90;;;;;;5050580;28;20246;-50
2023/02/25 07:45:58;;;;;;;1.73;1.30;;;4.20;99.90;;;;;;5050542;28;20204;-50
2023/02/25 07:48:25;;;;;;;2.45;1.20;;;4.30;99.90;;;;;;5049953;28;20645;-49
2023/02/25 07:50:52;;;;;;;1.40;1.00;;;4.20;99.90;;;;;;5050591;28;20197;-49
2023/02/25 07:53:20;;;;;;;1.80;1.35;;;4.10;99.90;;;;;;5051417;28;20661;-50
2023/02/25 07:55:47;;;;;;;1.98;1.30;;;4.20;99.90;;;;;;5054134;28;20616;-49
2023/02/25 07:58:14;;;;;;;2.45;1.55;;;4.50;99.90;;;;;;5053916;28;20210;-50
2023/02/25 08:00:41;;;;;;;1.90;1.40;;;4.30;99.90;;;;;;5054066;28;20266;-50
2023/02/25 08:03:09;;;;;;;2.00;1.65;;;4.30;99.90;;;;;;5053962;28;20684;-49
2023/02/25 08:05:36;;;;;;;2.42;1.33;;;4.10;99.90;;;;;;5053968;28;20199;-49
2023/02/25 08:08:03;;;;;;;2.13;1.50;;;4.70;99.90;;;;;;5053974;28;20676;-50
2023/02/25 08:10:30;;;;;;;4.80;1.02;;;4.30;99.90;;;;;;5053604;28;20228;-49
2023/02/25 08:12:58;;;;;;;2.45;1.48;;;4.40;99.90;;;;;;5053903;28;20542;-48
2023/02/25 08:15:24;;;;;;;1.95;1.50;;;4.80;99.90;;;;;;5053859;28;20200;-49
2023/02/25 08:17:54;;;;;;;2.65;1.50;;;4.40;99.90;;;;;;5053993;28;20594;-51
2023/02/25 08:20:23;;;;;;;2.05;1.30;;;3.90;99.90;;;;;;5053093;28;20285;-48
2023/02/25 08:22:49;;;;;;;5.13;1.52;;;4.40;99.90;;;;;;5053498;28;20203;-49
2023/02/25 08:25:16;;;;;;;1.90;1.50;;;4.30;99.90;;;;;;5053376;28;20200;-49
2023/02/25 08:27:43;;;;;;;2.50;1.00;;;4.30;99.90;;;;;;5053626;28;20199;-49
2023/02/25 08:30:11;;;;;;;1.67;1.45;;;5.00;99.90;;;;;;5053076;28;20252;-49
2023/02/25 08:32:39;;;;;;;2.15;1.05;;;4.40;99.90;;;;;;5053926;28;20543;-48
2023/02/25 08:35:06;;;;;;;2.25;1.27;;;4.40;99.90;;;;;;5053444;28;20206;-51
2023/02/25 08:37:34;;;;;;;1.73;0.90;;;4.30;99.90;;;;;;5053457;28;20203;-49
2023/02/25 08:40:00;;;;;;;1.80;1.20;;;4.40;99.90;;;;;;5052873;28;20226;-50
2023/02/25 08:42:27;;;;;;;1.90;1.20;;;4.20;99.90;;;;;;5053409;28;20208;-48
2023/02/25 08:44:54;;;;;;;2.03;1.10;;;4.30;99.90;;;;;;5035163;28;20200;-50
2023/02/25 08:47:20;;;;;;;1.83;1.50;;;4.40;99.90;;;;;;5035266;28;20207;-49
2023/02/25 08:49:47;;;;;;;1.73;1.00;;;4.30;99.90;;;;;;5052545;28;20224;-49
2023/02/25 08:52:14;;;;;;;1.65;1.00;;;4.20;99.90;;;;;;5052922;28;20199;-50
2023/02/25 08:54:42;;;;;;;4.55;1.25;;;4.20;99.90;;;;;;5053225;28;20593;-48
2023/02/25 08:57:09;;;;;;;4.00;1.30;;;4.00;99.90;;;;;;5052994;28;20230;-50
2023/02/25 08:59:35;;;;;;;1.60;1.05;;;4.20;99.90;;;;;;5052818;28;20208;-49
2023/02/25 09:02:02;;;;;;;1.85;1.10;;;4.20;99.90;;;;;;5052951;28;20282;-49
2023/02/25 09:04:29;;;;;;;2.53;1.40;;;4.30;99.90;;;;;;5052640;28;20295;-47
2023/02/25 09:06:57;;;;;;;2.17;1.23;;;3.90;99.90;;;;;;5052638;28;20192;-48
2023/02/25 09:09:24;;;;;;;2.08;1.00;;;4.40;99.90;;;;;;5051813;28;20327;-50
2023/02/25 09:11:53;;;;;;;1.73;1.10;;;4.60;99.90;;;;;;5052639;28;20283;-50
2023/02/25 09:14:21;;;;;;;1.15;0.88;;;4.30;99.90;;;;;;5052702;28;20560;-49
2023/02/25 09:16:48;;;;;;;2.00;1.00;;;4.40;99.90;;;;;;5052575;28;20204;-49
2023/02/25 09:19:16;;;;;;;2.80;2.50;;;4.60;99.90;;;;;;5051861;28;20212;-50
2023/02/25 09:21:43;;;;;;;1.60;0.98;;;4.90;99.90;;;;;;5052157;28;20196;-49
2023/02/25 09:24:10;;;;;;;2.30;1.42;;;4.30;99.90;;;;;;5052326;28;20640;-48
2023/02/25 09:26:37;;;;;;;1.63;1.17;;;4.30;99.90;;;;;;5052276;28;20204;-51
2023/02/25 09:29:06;;;;;;;2.38;1.30;;;4.60;99.90;;;;;;5051622;28;20219;-49
2023/02/25 09:31:35;;;;;;;1.70;1.10;;;4.50;99.90;;;;;;5052109;28;20207;-50
2023/02/25 09:34:03;;;;;;;1.95;1.00;;;4.60;99.90;;;;;;5052483;28;20196;-49
2023/02/25 09:36:31;;;;;;;1.40;1.10;;;4.40;99.90;;;;;;5052211;28;20283;-50
2023/02/25 09:38:58;;;;;;;2.22;1.20;;;4.60;99.90;;;;;;5051319;28;20294;-48
2023/02/25 09:41:29;;;;;;;1.10;0.80;;;4.20;99.90;;;;;;5052094;28;20196;-49
2023/02/25 09:44:07;;;;;;;2.45;1.15;;;4.40;99.90;;;;;;5052099;28;20200;-50
2023/02/25 09:46:40;;;;;;;1.83;1.00;;;4.60;99.90;;;;;;5051662;28;20254;-49
2023/02/25 09:49:14;;;;;;;1.50;0.95;;;4.60;99.90;;;;;;5051261;28;20512;-50
2023/02/25 09:51:46;;;;;;;1.65;1.00;;;4.50;99.90;;;;;;5051769;28;20510;-50
2023/02/25 09:54:20;;;;;;;4.45;3.17;;;4.80;99.90;;;;;;5051886;28;20204;-49
2023/02/25 09:56:46;;;;;;;1.90;0.90;;;4.80;99.90;;;;;;5051928;28;20203;-49
2023/02/25 09:59:20;;;;;;;2.50;1.23;;;4.80;99.90;;;;;;5051376;28;20212;-50
2023/02/25 10:01:52;;;;;;;2.97;1.30;;;4.80;99.90;;;;;;5051819;28;20224;-49
2023/02/25 10:04:29;;;;;;;2.17;1.30;;;4.70;99.90;;;;;;5051602;28;20544;-48
2023/02/25 10:07:01;;;;;;;2.20;1.55;;;4.70;99.90;;;;;;5051805;28;20505;-48
2023/02/25 10:09:34;;;;;;;1.77;1.23;;;5.10;99.90;;;;;;5050966;28;20228;-50
2023/02/25 10:12:08;;;;;;;2.00;1.40;;;4.90;99.90;;;;;;5051159;28;20204;-50
2023/02/25 10:14:51;;;;;;;1.70;1.00;;;5.00;99.90;;;;;;5051597;28;20278;-48
2023/02/25 10:17:26;;;;;;;1.58;1.00;;;5.10;99.90;;;;;;5033581;28;20211;-50
2023/02/25 10:20:17;;;;;;;2.10;0.93;;;4.70;99.90;;;;;;5050904;28;20653;-48
2023/02/25 10:22:55;;;;;;;2.53;1.77;;;4.70;99.90;;;;;;5051037;28;20219;-49
2023/02/25 10:25:26;;;;;;;1.27;1.00;;;5.40;99.90;;;;;;5050814;28;20203;-50
2023/02/25 10:27:59;;;;;;;1.50;0.90;;;5.20;99.90;;;;;;5050969;28;20200;-49
2023/02/25 10:30:31;;;;;;;1.15;0.75;;;4.80;99.90;;;;;;5050683;28;20220;-48
2023/02/25 10:33:03;;;;;;;1.10;0.70;;;5.00;99.90;;;;;;5051347;28;20656;-51
2023/02/25 10:35:33;;;;;;;1.20;0.80;;;4.80;99.90;;;;;;5051403;28;20192;-48
2023/02/25 10:38:00;;;;;;;2.08;0.80;;;5.10;99.90;;;;;;5051412;28;20277;-50
2023/02/25 10:40:28;;;;;;;1.52;1.05;;;4.30;99.90;;;;;;5051067;28;20208;-49
2023/02/25 10:42:59;;;;;;;2.13;1.40;;;4.90;99.90;;;;;;5050986;28;20295;-50
2023/02/25 10:45:28;;;;;;;2.03;1.45;;;5.00;99.90;;;;;;5051448;28;20438;-49
2023/02/25 10:48:00;;;;;;;1.40;1.05;;;4.50;99.90;;;;;;5050940;28;20200;-49
2023/02/25 10:50:28;;;;;;;1.67;0.80;;;5.10;99.90;;;;;;5050641;28;20227;-48
2023/02/25 10:52:58;;;;;;;1.73;1.00;;;5.20;99.90;;;;;;5051077;28;20203;-50
2023/02/25 10:55:36;;;;;;;2.42;1.23;;;4.90;99.90;;;;;;5050864;28;20196;-49
2023/02/25 10:58:03;;;;;;;1.30;0.95;;;5.10;99.90;;;;;;5050936;28;20195;-48
2023/02/25 11:00:35;;;;;;;1.80;0.80;;;5.30;99.90;;;;;;5050952;28;20269;-49
2023/02/25 11:03:05;;;;;;;2.10;0.98;;;5.30;99.90;;;;;;5051037;28;20197;-49
2023/02/25 11:05:37;;;;;;;1.50;0.80;;;5.10;99.90;;;;;;5050771;28;20196;-49
2023/02/25 11:08:06;;;;;;;2.80;0.70;;;4.90;99.90;;;;;;5050869;28;20299;-49
2023/02/25 11:10:34;;;;;;;1.90;1.20;;;5.30;99.90;;;;;;5120625;22;20915;-52
2023/02/25 11:13:02;;;;;;;1.37;0.70;;;5.50;99.90;;;;;;5093526;28;20194;-52
2023/02/25 11:15:34;;;;;;;1.00;0.77;;;5.50;99.90;;;;;;5111800;28;20432;-51
2023/02/25 11:18:06;;;;;;;1.27;0.87;;;5.60;99.90;;;;;;5111425;28;20452;-52
2023/02/25 11:20:33;;;;;;;1.30;0.80;;;5.00;99.90;;;;;;5111896;28;20502;-51
2023/02/25 11:23:01;;;;;;;1.63;0.77;;;5.20;99.90;;;;;;5111509;28;20195;-51
2023/02/25 11:25:37;;;;;;;1.20;0.70;;;5.50;99.90;;;;;;5111636;28;20511;-51
2023/02/25 11:28:06;;;;;;;1.10;0.70;;;4.40;99.90;;;;;;5112259;28;20193;-50
2023/02/25 11:30:37;;;;;;;1.55;0.80;;;5.10;99.90;;;;;;5116219;28;20484;-50
2023/02/25 11:33:12;;;;;;;1.20;0.80;;;5.20;99.90;;;;;;5115436;28;20235;-50
2023/02/25 11:35:40;;;;;;;3.47;1.95;;;5.00;99.90;;;;;;5115330;28;20205;-52
2023/02/25 11:38:15;;;;;;;2.17;1.13;;;5.10;99.90;;;;;;5115441;28;20571;-52
2023/02/25 11:40:43;;;;;;;2.72;2.35;;;4.80;99.90;;;;;;5115357;28;20216;-51
2023/02/25 11:43:19;;;;;;;1.90;1.30;;;5.10;99.90;;;;;;5115186;28;20190;-51
2023/02/25 11:45:56;;;;;;;1.50;0.90;;;5.00;99.90;;;;;;5115242;28;20197;-51
2023/02/25 11:48:27;;;;;;;1.45;0.90;;;5.00;99.90;;;;;;5114658;28;20198;-52
2023/02/25 11:51:03;;;;;;;1.60;0.90;;;5.10;99.90;;;;;;5114845;28;20225;-52
2023/02/25 11:53:41;;;;;;;1.52;0.90;;;4.90;99.90;;;;;;5115175;28;20669;-52
2023/02/25 11:56:15;;;;;;;1.90;1.02;;;5.40;99.90;;;;;;5114822;28;20662;-52
2023/02/25 11:58:53;;;;;;;1.30;0.80;;;5.30;99.90;;;;;;5114766;28;20205;-51
2023/02/25 12:01:34;;;;;;;1.20;0.80;;;5.10;99.90;;;;;;5114817;28;20202;-51
2023/02/25 12:04:22;;;;;;;1.35;0.90;;;5.10;99.90;;;;;;5115463;28;20454;-52
2023/02/25 12:07:15;;;;;;;1.27;0.77;;;5.10;99.90;;;;;;5114788;28;20210;-52
2023/02/25 12:10:19;;;;;;;1.20;0.93;;;5.20;99.90;;;;;;5114948;28;20467;-51
2023/02/25 12:13:16;;;;;;;2.38;1.33;;;4.80;99.90;;;;;;5117020;28;20922;-51
2023/02/25 12:16:18;;;;;;;1.90;0.70;;;4.90;99.90;;;;;;5116513;28;20202;-51
2023/02/25 12:19:08;;;;;;;2.78;1.30;;;5.10;99.90;;;;;;5047048;28;20511;-51
2023/02/25 12:22:11;;;;;;;2.22;1.30;;;5.00;99.90;;;;;;5116138;28;20198;-51
2023/02/25 12:25:11;;;;;;;1.48;1.13;;;4.60;99.90;;;;;;5114615;28;20193;-52
2023/02/25 12:28:00;;;;;;;2.30;1.27;;;5.10;99.90;;;;;;5096572;28;20232;-50
2023/02/25 12:31:12;;;;;;;2.13;1.00;;;4.80;99.90;;;;;;5114304;28;20650;-52
2023/02/25 12:34:11;;;;;;;1.30;0.85;;;5.00;99.90;;;;;;5066178;28;20713;-51
2023/02/25 12:36:57;;;;;;;1.30;0.90;;;5.20;99.90;;;;;;5094625;28;20202;-52
2023/02/25 12:39:46;;;;;;;1.85;0.70;;;5.30;99.90;;;;;;5112400;28;20347;-53
2023/02/25 12:42:40;;;;;;;1.35;0.85;;;5.00;99.90;;;;;;5113309;28;20432;-51
2023/02/25 12:45:28;;;;;;;1.70;1.10;;;5.30;99.90;;;;;;5114355;28;20592;-50
2023/02/25 12:48:26;;;;;;;2.00;0.90;;;5.30;99.90;;;;;;5114004;28;20275;-52
2023/02/25 12:51:13;;;;;;;1.53;1.03;;;4.90;99.90;;;;;;5113799;28;20480;-51
2023/02/25 12:53:53;;;;;;;2.50;1.10;;;4.80;99.90;;;;;;5113862;28;20430;-52
2023/02/25 12:56:52;;;;;;;1.60;1.00;;;4.70;99.90;;;;;;5113653;28;20194;-51
2023/02/25 12:59:43;;;;;;;1.63;0.80;;;5.10;99.90;;;;;;5113270;28;20218;-52
2023/02/25 13:02:51;;;;;;;2.35;0.90;;;4.80;99.90;;;;;;5114053;28;20277;-52
2023/02/25 13:05:35;;;;;;;1.50;0.80;;;4.50;99.90;;;;;;5011132;28;20308;-51
2023/02/25 13:08:35;;;;;;;1.52;0.95;;;4.80;99.90;;;;;;5109324;28;20206;-52
2023/02/25 13:11:15;;;;;;;1.48;1.00;;;4.60;99.90;;;;;;5113908;28;20587;-51
2023/02/25 13:14:12;;;;;;;2.42;1.55;;;4.00;99.90;;;;;;5114016;28;20210;-51
2023/02/25 13:16:49;;;;;;;1.45;1.23;;;4.50;99.90;;;;;;5113023;28;20210;-51
2023/02/25 13:19:33;;;;;;;1.40;0.90;;;4.40;99.90;;;;;;5095266;28;20229;-52